Time;durP1;ratioP1;P1;durP2;ratioP2;P2;SDS_P1;SDS_P2;PMS_P1;PMS_P2;Temp;Humidity;BMP_temperature;BMP_pressure;BME280_temperature;BME280_humidity;BME280_pressure;Samples;Min_cycle;Max_cycle;Signal;HPM_P1;HPM_P2
2022/08/15 00:01:14;;;;;;;;;;;22.50;99.90;;;;;;5069587;28;20033;-80
2022/08/15 00:03:51;;;;;;;;;;;22.40;99.90;;;;;;5049271;28;19925;-85
2022/08/15 00:06:21;;;;;;;;;;;22.30;99.90;;;;;;5064480;28;20010;-79
2022/08/15 00:08:54;;;;;;;;;;;22.30;99.90;;;;;;5066194;28;19924;-88
2022/08/15 00:11:26;;;;;;;;;;;22.30;99.90;;;;;;5076498;28;19930;-80
2022/08/15 00:13:56;;;;;;;;;;;22.30;99.90;;;;;;5070433;28;19980;-81
2022/08/15 00:16:50;;;;;;;;;;;22.30;99.90;;;;;;5070682;28;19979;-81
2022/08/15 00:19:29;;;;;;;;;;;22.30;99.90;;;;;;5058384;28;19929;-82
2022/08/15 00:22:04;;;;;;;;;;;22.30;99.90;;;;;;5072486;28;19924;-80
2022/08/15 00:24:31;;;;;;;;;;;22.30;99.90;;;;;;5070172;28;20398;-79
2022/08/15 00:26:59;;;;;;;;;;;22.30;99.90;;;;;;5056961;28;20007;-81
2022/08/15 00:29:26;;;;;;;;;;;22.20;99.90;;;;;;5075464;28;19935;-83
2022/08/15 00:31:53;;;;;;;;;;;22.20;99.90;;;;;;5067130;28;20323;-82
2022/08/15 00:34:20;;;;;;;;;;;22.20;99.90;;;;;;5053875;28;20293;-84
2022/08/15 00:36:50;;;;;;;;;;;22.20;99.90;;;;;;5064145;28;20580;-86
2022/08/15 00:42:25;;;;;;;;;;;22.10;99.90;;;;;;5011114;28;19928;-81
2022/08/15 00:44:54;;;;;;;;;;;22.00;99.90;;;;;;5066506;28;19935;-84
2022/08/15 00:47:21;;;;;;;;;;;22.00;99.90;;;;;;5052430;28;19924;-82
2022/08/15 00:49:48;;;;;;;;;;;22.00;99.90;;;;;;5064436;28;20019;-80
2022/08/15 00:52:17;;;;;;;;;;;21.90;99.90;;;;;;5061972;28;19967;-80
2022/08/15 00:54:48;;;;;;;;;;;21.80;99.90;;;;;;5019636;28;21377;-82
2022/08/15 00:57:21;;;;;;;;;;;21.70;99.90;;;;;;5068647;28;19928;-82
2022/08/15 00:59:51;;;;;;;;;;;21.70;99.90;;;;;;5081546;28;20412;-83
2022/08/15 01:02:18;;;;;;;;;;;21.70;99.90;;;;;;5099008;28;19951;-81
2022/08/15 01:04:44;;;;;;;;;;;21.70;99.90;;;;;;5081660;28;20117;-81
2022/08/15 01:07:14;;;;;;;;;;;;;;;;;;5078911;28;19973;-83
2022/08/15 01:09:56;;;;;;;;;;;21.60;99.90;;;;;;5054080;28;19932;-80
2022/08/15 01:12:24;;;;;;;;;;;21.50;99.90;;;;;;5083412;28;20069;-82
2022/08/15 01:14:52;;;;;;;;;;;21.50;99.90;;;;;;5083684;28;20182;-80
2022/08/15 01:17:19;;;;;;;;;;;21.50;99.90;;;;;;5069199;28;19924;-81
2022/08/15 01:20:19;;;;;;;;;;;21.50;99.90;;;;;;5090270;28;19958;-86
2022/08/15 01:23:26;;;;;;;;;;;21.40;99.90;;;;;;5086909;28;20014;-83
2022/08/15 01:26:15;;;;;;;;;;;21.40;99.90;;;;;;5102846;28;19935;-79
2022/08/15 01:28:43;;;;;;;;;;;21.80;99.90;;;;;;5062816;28;19929;-83
2022/08/15 01:31:11;;;;;;;;;;;21.40;99.90;;;;;;5081945;28;20332;-82
2022/08/15 01:33:45;;;;;;;;;;;21.40;99.90;;;;;;5080705;28;20457;-80
2022/08/15 01:36:11;;;;;;;;;;;21.30;99.90;;;;;;5089946;28;19924;-80
2022/08/15 01:38:39;;;;;;;;;;;21.30;99.90;;;;;;5079130;28;19928;-82
2022/08/15 01:41:10;;;;;;;;;;;21.20;99.90;;;;;;5084953;28;19931;-83
2022/08/15 01:43:41;;;;;;;;;;;21.20;99.90;;;;;;5082175;28;19935;-81
2022/08/15 01:46:08;;;;;;;;;;;21.20;99.90;;;;;;5083810;28;20255;-81
2022/08/15 01:48:54;;;;;;;;;;;21.20;99.90;;;;;;5091015;28;20385;-81
2022/08/15 01:51:19;;;;;;;;;;;21.20;99.90;;;;;;5063473;28;20427;-79
2022/08/15 01:54:12;;;;;;;;;;;21.20;99.90;;;;;;5083930;28;19978;-81
2022/08/15 01:56:40;;;;;;;;;;;21.20;99.90;;;;;;5081422;28;19924;-82
2022/08/15 01:59:10;;;;;;;;;;;21.20;99.90;;;;;;5088824;28;19927;-83
2022/08/15 02:01:56;;;;;;;;;;;21.30;99.90;;;;;;5085224;28;20382;-82
2022/08/15 02:04:29;;;;;;;;;;;21.30;99.90;;;;;;5067838;28;19928;-84
2022/08/15 02:09:27;;;;;;;;;;;21.40;99.90;;;;;;5106102;22;19928;-79
2022/08/15 02:11:54;;;;;;;;;;;21.40;99.90;;;;;;5063202;28;19924;-81
2022/08/15 02:14:20;;;;;;;;;;;21.40;99.90;;;;;;5064995;28;19968;-80
2022/08/15 02:16:46;;;;;;;;;;;21.30;99.90;;;;;;5051821;28;19979;-80
2022/08/15 02:19:13;;;;;;;;;;;21.20;99.90;;;;;;5068948;28;20373;-81
2022/08/15 02:21:40;;;;;;;;;;;21.20;99.90;;;;;;5068664;28;19978;-81
2022/08/15 02:24:11;;;;;;;;;;;21.10;99.90;;;;;;5068965;28;20014;-78
2022/08/15 02:26:37;;;;;;;;;;;21.10;99.90;;;;;;5049512;28;19935;-82
2022/08/15 02:29:03;;;;;;;;;;;21.10;99.90;;;;;;5067732;28;19924;-79
2022/08/15 02:31:31;;;;;;;;;;;21.10;99.90;;;;;;5066309;28;19932;-86
2022/08/15 02:33:58;;;;;;;;;;;21.20;99.90;;;;;;5068639;28;20019;-82
2022/08/15 02:36:25;;;;;;;;;;;21.20;99.90;;;;;;5054584;28;19924;-85
2022/08/15 02:38:52;;;;;;;;;;;21.20;99.90;;;;;;5069071;28;19931;-84
2022/08/15 02:41:23;;;;;;;;;;;21.10;99.90;;;;;;5055537;28;19924;-78
2022/08/15 02:43:49;;;;;;;;;;;21.10;99.90;;;;;;5057517;28;19928;-83
2022/08/15 02:46:16;;;;;;;;;;;21.10;99.90;;;;;;5061664;28;20049;-78
2022/08/15 02:48:43;;;;;;;;;;;21.10;99.90;;;;;;5072255;28;19939;-84
2022/08/15 02:51:10;;;;;;;;;;;21.10;99.90;;;;;;5062958;28;19931;-79
2022/08/15 02:53:37;;;;;;;;;;;21.10;99.90;;;;;;5068605;28;19936;-80
2022/08/15 02:59:08;;;;;;;;;;;21.00;99.90;;;;;;5069099;28;20386;-84
2022/08/15 03:08:00;;;;;;;;;;;21.00;99.90;;;;;;5095322;28;19926;-84
2022/08/15 03:16:59;;;;;;;;;;;21.00;99.90;;;;;;5097477;28;20010;-84
2022/08/15 03:19:31;;;;;;;;;;;21.00;99.90;;;;;;5073088;28;20273;-81
2022/08/15 03:21:57;;;;;;;;;;;21.10;99.90;;;;;;5061266;28;19958;-80
2022/08/15 03:24:23;;;;;;;;;;;21.10;99.90;;;;;;5070987;28;19966;-82
2022/08/15 03:26:49;;;;;;;;;;;21.10;99.90;;;;;;5054251;28;19979;-82
2022/08/15 03:29:18;;;;;;;;;;;21.10;99.90;;;;;;5032894;28;19924;-80
2022/08/15 03:31:47;;;;;;;;;;;21.10;99.90;;;;;;5055374;28;19924;-80
2022/08/15 03:34:14;;;;;;;;;;;21.10;99.90;;;;;;5070283;28;20443;-80
2022/08/15 03:36:44;;;;;;;;;;;21.10;99.90;;;;;;5053278;28;19940;-81
2022/08/15 03:39:10;;;;;;;;;;;21.10;99.90;;;;;;5069986;28;20539;-81
2022/08/15 03:41:36;;;;;;;;;;;21.00;99.90;;;;;;5052997;28;19932;-81
2022/08/15 03:44:03;;;;;;;;;;;21.00;99.90;;;;;;5069434;28;19951;-81
2022/08/15 03:46:30;;;;;;;;;;;21.00;99.90;;;;;;5053583;28;20022;-81
2022/08/15 03:48:56;;;;;;;;;;;21.00;99.90;;;;;;5053533;28;20333;-81
2022/08/15 03:51:23;;;;;;;;;;;21.00;99.90;;;;;;5051748;28;19973;-81
2022/08/15 03:53:53;;;;;;;;;;;21.00;99.90;;;;;;5069466;28;19983;-82
2022/08/15 03:56:30;;;;;;;;;;;21.00;99.90;;;;;;5047668;28;20018;-81
2022/08/15 04:02:48;;;;;;;;;;;20.90;99.90;;;;;;5088169;28;19945;-80
2022/08/15 04:05:34;;;;;;;;;;;20.90;99.90;;;;;;5069273;28;20358;-80
2022/08/15 04:08:25;;;;;;;;;;;20.90;99.90;;;;;;5078076;28;19959;-81
2022/08/15 04:10:59;;;;;;;;;;;20.90;99.90;;;;;;5045695;28;20042;-81
2022/08/15 04:16:50;;;;;;;;;;;20.70;99.90;;;;;;5045470;28;20073;-82
2022/08/15 04:19:19;;;;;;;;;;;20.60;99.90;;;;;;5036369;28;20264;-81
2022/08/15 04:21:44;;;;;;;;;;;20.50;99.90;;;;;;5048928;28;19928;-83
2022/08/15 04:24:14;;;;;;;;;;;20.50;99.90;;;;;;5036785;28;19927;-86
2022/08/15 04:26:41;;;;;;;;;;;20.50;99.90;;;;;;5066568;28;19956;-81
2022/08/15 04:29:07;;;;;;;;;;;20.50;99.90;;;;;;5028247;28;19925;-86
2022/08/15 04:31:33;;;;;;;;;;;20.40;99.90;;;;;;5033179;28;19924;-83
2022/08/15 04:33:59;;;;;;;;;;;20.40;99.90;;;;;;5018813;28;20375;-84
2022/08/15 04:36:26;;;;;;;;;;;20.50;99.90;;;;;;5036442;28;19925;-83
2022/08/15 04:38:53;;;;;;;;;;;20.40;99.90;;;;;;5046905;28;19929;-82
2022/08/15 04:41:19;;;;;;;;;;;20.50;99.90;;;;;;5045195;28;20307;-81
2022/08/15 04:44:03;;;;;;;;;;;20.50;99.90;;;;;;5037821;28;19936;-83
2022/08/15 04:49:51;;;;;;;;;;;20.50;99.90;;;;;;5049788;28;20248;-82
2022/08/15 04:52:21;;;;;;;;;;;20.50;99.90;;;;;;5054414;28;19938;-83
2022/08/15 04:58:10;;;;;;;;;;;20.50;99.90;;;;;;5073135;28;20385;-81
2022/08/15 05:00:40;;;;;;;;;;;20.60;99.90;;;;;;5032404;28;19928;-84
2022/08/15 05:03:06;;;;;;;;;;;20.60;99.90;;;;;;5033905;28;19939;-84
2022/08/15 05:05:34;;;;;;;;;;;20.60;99.90;;;;;;5033255;28;19928;-82
2022/08/15 05:08:00;;;;;;;;;;;20.70;99.90;;;;;;5049468;28;19931;-83
2022/08/15 05:10:27;;;;;;;;;;;20.70;99.90;;;;;;5065691;28;19928;-83
2022/08/15 05:12:53;;;;;;;;;;;20.70;99.90;;;;;;5069308;28;19979;-81
2022/08/15 05:15:19;;;;;;;;;;;20.80;99.90;;;;;;5050891;28;19967;-82
2022/08/15 05:17:45;;;;;;;;;;;20.80;99.90;;;;;;5068579;28;19928;-83
2022/08/15 05:20:12;;;;;;;;;;;20.80;99.90;;;;;;5035655;28;20506;-82
2022/08/15 05:22:57;;;;;;;;;;;20.90;99.90;;;;;;5052220;28;19985;-80
2022/08/15 05:25:23;;;;;;;;;;;20.90;99.90;;;;;;5070797;28;19924;-83
2022/08/15 05:27:49;;;;;;;;;;;21.00;99.90;;;;;;5068694;28;19928;-83
2022/08/15 05:30:15;;;;;;;;;;;21.00;99.90;;;;;;5065509;28;20157;-83
2022/08/15 05:32:41;;;;;;;;;;;20.90;99.90;;;;;;5051995;28;19924;-82
2022/08/15 05:35:07;;;;;;;;;;;21.00;99.90;;;;;;5070116;28;19951;-82
2022/08/15 05:37:34;;;;;;;;;;;20.90;99.90;;;;;;5038523;28;20002;-82
2022/08/15 05:40:00;;;;;;;;;;;21.00;99.90;;;;;;5068988;28;19924;-82
2022/08/15 05:42:27;;;;;;;;;;;21.00;99.90;;;;;;5035751;28;19975;-82
2022/08/15 05:45:16;;;;;;;;;;;20.80;99.90;;;;;;5055934;28;19970;-83
2022/08/15 05:51:01;;;;;;;;;;;21.10;99.90;;;;;;5076263;28;19920;-83
2022/08/15 05:56:30;;;;;;;;;;;;;;;;;;5074072;28;19931;-82
2022/08/15 05:59:01;;;;;;;;;;;21.20;99.90;;;;;;5056232;28;19932;-82
2022/08/15 06:01:30;;;;;;;;;;;21.10;99.90;;;;;;5045374;28;19943;-83
2022/08/15 06:04:01;;;;;;;;;;;21.10;99.90;;;;;;5064285;28;20387;-83
2022/08/15 06:06:30;;;;;;;;;;;21.10;99.90;;;;;;5054092;28;20429;-84
2022/08/15 06:09:00;;;;;;;;;;;21.10;99.90;;;;;;5066258;28;20023;-83
2022/08/15 06:11:33;;;;;;;;;;;21.10;99.90;;;;;;5065721;28;20018;-87
2022/08/15 06:14:13;;;;;;;;;;;21.10;99.90;;;;;;5066417;28;19943;-85
2022/08/15 06:16:43;;;;;;;;;;;21.10;99.90;;;;;;5060253;28;19925;-79
2022/08/15 06:19:21;;;;;;;;;;;21.10;99.90;;;;;;5065522;28;19949;-80
2022/08/15 06:22:17;;;;;;;;;;;21.10;99.90;;;;;;5069543;28;19997;-79
2022/08/15 06:24:53;;;;;;;;;;;21.10;99.90;;;;;;5060079;28;20523;-84
2022/08/15 06:27:21;;;;;;;;;;;21.10;99.90;;;;;;5059316;28;20009;-83
2022/08/15 06:30:15;;;;;;;;;;;21.10;99.90;;;;;;5051778;28;19936;-79
2022/08/15 06:32:40;;;;;;;;;;;21.10;99.90;;;;;;5056227;28;19924;-88
2022/08/15 06:35:10;;;;;;;;;;;21.10;99.90;;;;;;5052730;28;19982;-79
2022/08/15 06:37:42;;;;;;;;;;;21.10;99.90;;;;;;5068793;28;19939;-85
2022/08/15 06:40:14;;;;;;;;;;;21.20;99.90;;;;;;5067131;28;19932;-84
2022/08/15 06:42:41;;;;;;;;;;;21.20;99.90;;;;;;5069952;28;19931;-83
2022/08/15 06:45:08;;;;;;;;;;;21.20;99.90;;;;;;5066994;28;20400;-82
2022/08/15 06:47:34;;;;;;;;;;;21.20;99.90;;;;;;5068845;28;19932;-85
2022/08/15 06:50:03;;;;;;;;;;;21.30;99.90;;;;;;5049079;28;20028;-83
2022/08/15 06:52:30;;;;;;;;;;;21.30;99.90;;;;;;5068523;28;19931;-82
2022/08/15 06:54:57;;;;;;;;;;;21.40;99.90;;;;;;5068033;28;19960;-83
2022/08/15 06:57:55;;;;;;;;;;;21.50;99.90;;;;;;5043762;28;19987;-82
2022/08/15 07:00:27;;;;;;;;;;;21.70;99.90;;;;;;5006522;28;20403;-86
2022/08/15 07:03:18;;;;;;;;;;;21.80;99.90;;;;;;5068102;28;19932;-87
2022/08/15 07:05:45;;;;;;;;;;;21.90;99.90;;;;;;5010150;28;19925;-83
2022/08/15 07:08:11;;;;;;;;;;;22.00;99.90;;;;;;5069300;28;19924;-81
2022/08/15 07:10:48;;;;;;;;;;;22.20;99.90;;;;;;5067802;28;20035;-79
2022/08/15 07:13:15;;;;;;;;;;;;;;;;;;5062765;28;19937;-83
2022/08/15 07:15:55;;;;;;;;;;;22.30;99.90;;;;;;5061519;28;20027;-80
2022/08/15 07:18:28;;;;;;;;;;;22.30;99.90;;;;;;5060258;28;20374;-84
2022/08/15 07:21:06;;;;;;;;;;;22.50;99.90;;;;;;5063644;28;19924;-81
2022/08/15 07:23:32;;;;;;;;;;;;;;;;;;5061740;28;20019;-79
2022/08/15 07:26:05;;;;;;;;;;;22.70;99.90;;;;;;5067163;28;20010;-82
2022/08/15 07:28:33;;;;;;;;;;;22.90;99.90;;;;;;5067384;28;19967;-80
2022/08/15 07:30:59;;;;;;;;;;;;;;;;;;5066020;28;20062;-83
2022/08/15 07:33:33;;;;;;;;;;;23.20;99.90;;;;;;5046150;28;19929;-80
2022/08/15 07:36:03;;;;;;;;;;;23.30;99.90;;;;;;5051279;28;20039;-84
2022/08/15 07:38:29;;;;;;;;;;;;;;;;;;5051385;28;19924;-82
2022/08/15 07:41:11;;;;;;;;;;;23.50;99.90;;;;;;5069584;28;19928;-87
2022/08/15 07:43:38;;;;;;;;;;;23.60;99.90;;;;;;5067044;28;20014;-83
2022/08/15 07:46:04;;;;;;;;;;;23.70;99.90;;;;;;5033383;28;19924;-80
2022/08/15 07:48:32;;;;;;;;;;;;;;;;;;5066903;28;20027;-79
2022/08/15 07:51:06;;;;;;;;;;;24.00;99.90;;;;;;5083610;28;19924;-78
2022/08/15 07:53:32;;;;;;;;;;;24.20;99.90;;;;;;5061537;28;19936;-80
2022/08/15 07:56:12;;;;;;;;;;;24.30;99.90;;;;;;5066408;28;19924;-81
2022/08/15 07:58:39;;;;;;;;;;;24.40;99.90;;;;;;5055007;28;20050;-79
2022/08/15 08:01:10;;;;;;;;;;;24.80;99.90;;;;;;5043776;28;19932;-82
2022/08/15 08:03:37;;;;;;;;;;;26.30;99.90;;;;;;5040033;28;19929;-83
2022/08/15 08:06:22;;;;;;;;;;;26.70;99.90;;;;;;5067202;28;19925;-82
2022/08/15 08:08:51;;;;;;;;;;;27.30;99.90;;;;;;5045046;28;19928;-87
2022/08/15 08:11:39;;;;;;;;;;;27.70;99.90;;;;;;5062724;28;20406;-81
2022/08/15 08:14:13;;;;;;;;;;;28.30;99.90;;;;;;5054932;28;20503;-84
2022/08/15 08:16:56;;;;;;;;;;;28.90;99.90;;;;;;5025096;28;20595;-86
2022/08/15 08:19:37;;;;;;;;;;;29.30;99.90;;;;;;5047776;28;19936;-81
2022/08/15 08:22:20;;;;;;;;;;;29.60;99.10;;;;;;5051714;28;19924;-84
2022/08/15 08:25:04;;;;;;;;;;;29.90;98.50;;;;;;5051089;28;19975;-83
2022/08/15 08:27:30;;;;;;;;;;;29.70;97.90;;;;;;5050392;28;19925;-82
2022/08/15 08:30:00;;;;;;;;;;;29.50;97.70;;;;;;5037947;28;19928;-81
2022/08/15 08:32:43;;;;;;;;;;;29.50;95.60;;;;;;5045630;28;19928;-82
2022/08/15 08:35:14;;;;;;;;;;;29.90;95.50;;;;;;5048606;28;19955;-81
2022/08/15 08:37:59;;;;;;;;;;;30.50;95.40;;;;;;5039617;28;19928;-81
2022/08/15 08:43:17;;;;;;;;;;;30.80;92.10;;;;;;5044744;28;19954;-81
2022/08/15 08:46:02;;;;;;;;;;;30.00;91.80;;;;;;5054619;28;19932;-83
2022/08/15 08:48:37;;;;;;;;;;;29.10;92.30;;;;;;5037250;28;19924;-84
2022/08/15 08:51:03;;;;;;;;;;;28.60;93.00;;;;;;5034878;28;19972;-83
2022/08/15 08:53:48;;;;;;;;;;;28.30;94.10;;;;;;5056227;28;19924;-80
2022/08/15 08:56:19;;;;;;;;;;;28.00;94.60;;;;;;5031337;28;19930;-81
2022/08/15 08:58:48;;;;;;;;;;;27.60;94.90;;;;;;5031959;28;20006;-82
2022/08/15 09:01:17;;;;;;;;;;;27.40;95.70;;;;;;5056288;28;20368;-83
2022/08/15 09:03:48;;;;;;;;;;;27.30;95.80;;;;;;5037035;28;19971;-82
2022/08/15 09:06:17;;;;;;;;;;;27.30;96.40;;;;;;5052131;28;19935;-84
2022/08/15 09:08:51;;;;;;;;;;;27.40;96.40;;;;;;5036298;28;20006;-83
2022/08/15 09:11:16;;;;;;;;;;;27.40;97.40;;;;;;5074182;28;19989;-79
2022/08/15 09:13:43;;;;;;;;;;;27.40;96.90;;;;;;5068168;28;19924;-79
2022/08/15 09:16:16;;;;;;;;;;;27.50;96.90;;;;;;5068726;28;19924;-82
2022/08/15 09:18:51;;;;;;;;;;;27.60;97.10;;;;;;5051524;28;20035;-81
2022/08/15 09:21:17;;;;;;;;;;;28.10;95.80;;;;;;5077515;28;19951;-84
2022/08/15 09:23:44;;;;;;;;;;;28.40;96.20;;;;;;5054875;28;19924;-78
2022/08/15 09:26:19;;;;;;;;;;;28.70;94.80;;;;;;5074487;28;20521;-83
2022/08/15 09:28:49;;;;;;;;;;;28.80;95.00;;;;;;5049174;28;19969;-83
2022/08/15 09:31:18;;;;;;;;;;;29.00;92.70;;;;;;5044607;28;19970;-82
2022/08/15 09:33:53;;;;;;;;;;;29.20;92.80;;;;;;5067697;28;19931;-84
2022/08/15 09:36:28;;;;;;;;;;;29.40;92.40;;;;;;5049693;28;20389;-82
2022/08/15 09:39:00;;;;;;;;;;;29.90;91.10;;;;;;5058138;28;19931;-80
2022/08/15 09:41:45;;;;;;;;;;;29.90;91.10;;;;;;5072669;28;19974;-86
2022/08/15 09:44:28;;;;;;;;;;;29.90;87.10;;;;;;5068791;28;20019;-78
2022/08/15 09:47:00;;;;;;;;;;;30.00;87.60;;;;;;5068797;28;20441;-82
2022/08/15 09:49:40;;;;;;;;;;;30.20;88.50;;;;;;5069986;28;19932;-82
2022/08/15 09:52:24;;;;;;;;;;;30.60;88.00;;;;;;5070606;28;19932;-86
2022/08/15 09:54:56;;;;;;;;;;;31.00;86.20;;;;;;5075705;28;20026;-84
2022/08/15 09:57:22;;;;;;;;;;;31.10;85.20;;;;;;5080826;28;20006;-81
2022/08/15 09:59:50;;;;;;;;;;;31.10;84.70;;;;;;5071090;28;20466;-78
2022/08/15 10:02:16;;;;;;;;;;;;;;;;;;5043643;28;20431;-78
2022/08/15 10:04:48;;;;;;;;;;;31.10;83.70;;;;;;5054589;28;19932;-79
2022/08/15 10:07:14;;;;;;;;;;;31.00;82.00;;;;;;5050969;28;20395;-80
2022/08/15 10:09:59;;;;;;;;;;;30.80;83.90;;;;;;5071722;28;19935;-78
2022/08/15 10:12:25;;;;;;;;;;;30.90;84.40;;;;;;5071826;28;19974;-81
2022/08/15 10:14:53;;;;;;;;;;;30.90;83.80;;;;;;5070952;28;19971;-78
2022/08/15 10:17:46;;;;;;;;;;;30.90;83.10;;;;;;5070485;28;19970;-80
2022/08/15 10:20:15;;;;;;;;;;;30.80;84.20;;;;;;5063038;28;19967;-78
2022/08/15 10:22:48;;;;;;;;;;;30.80;83.90;;;;;;5071027;28;19924;-80
2022/08/15 10:25:24;;;;;;;;;;;30.70;83.00;;;;;;5058269;28;19924;-80
2022/08/15 10:27:59;;;;;;;;;;;30.60;84.70;;;;;;5055651;28;19977;-79
2022/08/15 10:30:27;;;;;;;;;;;30.40;84.10;;;;;;5069674;28;19928;-79
2022/08/15 10:32:53;;;;;;;;;;;30.30;84.40;;;;;;5055340;28;19924;-83
2022/08/15 10:35:29;;;;;;;;;;;30.10;85.00;;;;;;5054129;28;19931;-84
2022/08/15 10:37:58;;;;;;;;;;;30.10;85.70;;;;;;5072106;28;20313;-82
2022/08/15 10:40:29;;;;;;;;;;;30.00;84.90;;;;;;5069113;28;20592;-84
2022/08/15 10:43:03;;;;;;;;;;;29.90;86.10;;;;;;5071158;28;19924;-80
2022/08/15 10:45:41;;;;;;;;;;;29.70;85.10;;;;;;5052322;28;19924;-86
2022/08/15 10:48:27;;;;;;;;;;;29.70;86.70;;;;;;5051187;28;19924;-81
2022/08/15 10:51:02;;;;;;;;;;;29.80;86.30;;;;;;5024687;28;20010;-85
2022/08/15 10:53:29;;;;;;;;;;;29.80;85.80;;;;;;5055172;28;19990;-81
2022/08/15 10:56:16;;;;;;;;;;;29.70;85.40;;;;;;5072135;28;19931;-82
2022/08/15 10:58:43;;;;;;;;;;;29.60;84.50;;;;;;5063948;28;19935;-85
2022/08/15 11:01:12;;;;;;;;;;;29.60;84.20;;;;;;5069467;28;20379;-81
2022/08/15 11:03:43;;;;;;;;;;;29.50;84.50;;;;;;5055127;28;19939;-81
2022/08/15 11:06:13;;;;;;;;;;;29.50;85.70;;;;;;5072129;28;19976;-82
2022/08/15 11:08:47;;;;;;;;;;;29.40;85.60;;;;;;5054648;28;20444;-85
2022/08/15 11:11:17;;;;;;;;;;;29.50;86.40;;;;;;5073457;28;19985;-85
2022/08/15 11:13:50;;;;;;;;;;;29.60;86.00;;;;;;5070900;28;20421;-83
2022/08/15 11:16:29;;;;;;;;;;;29.80;86.80;;;;;;5071683;28;19978;-82
2022/08/15 11:18:57;;;;;;;;;;;30.00;86.80;;;;;;5054308;28;19960;-81
2022/08/15 11:21:32;;;;;;;;;;;30.00;86.40;;;;;;5071511;28;19924;-83
2022/08/15 11:24:01;;;;;;;;;;;30.10;86.60;;;;;;5070031;28;19924;-81
2022/08/15 11:26:29;;;;;;;;;;;30.10;86.20;;;;;;5074238;28;19928;-78
2022/08/15 11:29:07;;;;;;;;;;;30.00;86.00;;;;;;5070366;28;19928;-79
2022/08/15 11:31:41;;;;;;;;;;;29.90;85.70;;;;;;5068761;28;20412;-80
2022/08/15 11:34:17;;;;;;;;;;;29.80;84.80;;;;;;5053879;28;19928;-79
2022/08/15 11:36:43;;;;;;;;;;;29.60;85.20;;;;;;5057002;28;19974;-79
2022/08/15 11:39:13;;;;;;;;;;;29.40;85.90;;;;;;5057568;28;19975;-79
2022/08/15 11:41:42;;;;;;;;;;;29.30;87.30;;;;;;5071006;28;19924;-78
2022/08/15 11:44:10;;;;;;;;;;;29.10;88.70;;;;;;5054738;28;19924;-79
2022/08/15 11:46:37;;;;;;;;;;;29.00;89.70;;;;;;5069797;28;19985;-80
2022/08/15 11:49:11;;;;;;;;;;;28.90;90.30;;;;;;5056842;28;20339;-78
2022/08/15 11:51:46;;;;;;;;;;;28.80;90.00;;;;;;5050686;28;20019;-81
2022/08/15 11:54:12;;;;;;;;;;;28.70;90.20;;;;;;5051552;28;22213;-80
2022/08/15 11:56:45;;;;;;;;;;;28.70;90.20;;;;;;5070208;28;20002;-80
2022/08/15 11:59:34;;;;;;;;;;;28.60;90.30;;;;;;5071250;28;19928;-78
2022/08/15 12:02:00;;;;;;;;;;;28.50;90.40;;;;;;5066745;28;19925;-78
2022/08/15 12:04:32;;;;;;;;;;;28.40;90.80;;;;;;5065848;28;20210;-77
2022/08/15 12:07:04;;;;;;;;;;;28.30;90.90;;;;;;5043304;28;19924;-78
2022/08/15 12:09:31;;;;;;;;;;;28.20;91.00;;;;;;5071288;28;20279;-79
2022/08/15 12:11:58;;;;;;;;;;;28.10;91.30;;;;;;5066818;28;20445;-79
2022/08/15 12:14:25;;;;;;;;;;;28.00;91.20;;;;;;5064952;28;20275;-80
2022/08/15 12:16:51;;;;;;;;;;;27.90;91.10;;;;;;5069736;28;19924;-78
2022/08/15 12:19:29;;;;;;;;;;;27.80;91.20;;;;;;5066012;28;19935;-79
2022/08/15 12:22:00;;;;;;;;;;;27.80;91.30;;;;;;5083813;28;20503;-79
2022/08/15 12:24:28;;;;;;;;;;;27.70;91.40;;;;;;5083911;28;20362;-77
2022/08/15 12:27:00;;;;;;;;;;;27.70;91.40;;;;;;5064716;28;20456;-78
2022/08/15 12:29:43;;;;;;;;;;;27.70;91.30;;;;;;5065562;28;20638;-78
2022/08/15 12:32:10;;;;;;;;;;;27.70;91.60;;;;;;5048522;28;19932;-79
2022/08/15 12:34:38;;;;;;;;;;;27.70;91.80;;;;;;5066886;28;19935;-78
2022/08/15 12:37:05;;;;;;;;;;;27.70;92.10;;;;;;5065969;28;19929;-78
2022/08/15 12:39:39;;;;;;;;;;;27.70;92.30;;;;;;5069610;28;19932;-78
2022/08/15 12:42:05;;;;;;;;;;;27.70;92.50;;;;;;5086193;28;20171;-78
2022/08/15 12:44:34;;;;;;;;;;;27.70;92.60;;;;;;5048056;28;19964;-79
2022/08/15 12:47:00;;;;;;;;;;;27.70;93.10;;;;;;5065499;28;19924;-80
2022/08/15 12:49:32;;;;;;;;;;;27.70;93.20;;;;;;5050729;28;20046;-79
2022/08/15 12:51:58;;;;;;;;;;;27.60;93.30;;;;;;5060063;28;20000;-78
2022/08/15 12:54:24;;;;;;;;;;;27.60;93.50;;;;;;5062943;28;19925;-77
2022/08/15 12:56:49;;;;;;;;;;;27.60;93.60;;;;;;5069264;28;19935;-78
2022/08/15 12:59:15;;;;;;;;;;;27.60;93.60;;;;;;5064718;28;19935;-79
2022/08/15 13:01:42;;;;;;;;;;;27.60;93.50;;;;;;5065924;28;19925;-79
2022/08/15 13:04:10;;;;;;;;;;;27.50;93.50;;;;;;5065628;28;19985;-79
2022/08/15 13:06:48;;;;;;;;;;;27.40;93.50;;;;;;5050795;28;19928;-79
2022/08/15 13:09:14;;;;;;;;;;;27.40;93.10;;;;;;5070430;28;19967;-78
2022/08/15 13:11:41;;;;;;;;;;;27.40;93.00;;;;;;5054642;28;19970;-77
2022/08/15 13:14:08;;;;;;;;;;;27.30;92.90;;;;;;5047505;28;20004;-79
2022/08/15 13:16:35;;;;;;;;;;;27.40;93.00;;;;;;5066350;28;19978;-84
2022/08/15 13:19:04;;;;;;;;;;;27.30;92.90;;;;;;5065751;28;19995;-80
2022/08/15 13:24:23;;;;;;;;;;;27.30;93.90;;;;;;5088480;28;19946;-80
2022/08/15 13:26:49;;;;;;;;;;;27.30;94.30;;;;;;5051854;28;20374;-80
2022/08/15 13:29:18;;;;;;;;;;;27.20;94.40;;;;;;5064213;28;20045;-80
2022/08/15 13:31:48;;;;;;;;;;;27.20;94.60;;;;;;5051528;28;19924;-79
2022/08/15 13:34:15;;;;;;;;;;;27.10;94.70;;;;;;5053668;28;19975;-79
2022/08/15 13:36:41;;;;;;;;;;;27.10;94.90;;;;;;5064552;28;19971;-77
2022/08/15 13:39:16;;;;;;;;;;;27.00;94.90;;;;;;5092014;28;19928;-78
2022/08/15 13:41:42;;;;;;;;;;;27.00;95.00;;;;;;5067034;28;19929;-80
2022/08/15 13:44:08;;;;;;;;;;;27.00;95.40;;;;;;5064947;28;19971;-78
2022/08/15 13:46:37;;;;;;;;;;;27.00;95.80;;;;;;5067108;28;20283;-78
2022/08/15 13:49:03;;;;;;;;;;;27.00;96.00;;;;;;5065606;28;20547;-79
2022/08/15 13:51:32;;;;;;;;;;;27.00;96.20;;;;;;5049854;28;19928;-78
2022/08/15 13:53:58;;;;;;;;;;;27.00;96.30;;;;;;5070257;28;20017;-78
2022/08/15 13:56:25;;;;;;;;;;;27.00;95.70;;;;;;5065675;28;19924;-78
2022/08/15 13:58:51;;;;;;;;;;;27.00;95.30;;;;;;5068360;28;19924;-77
2022/08/15 14:01:30;;;;;;;;;;;27.10;95.20;;;;;;5072958;28;19913;-81
2022/08/15 14:03:57;;;;;;;;;;;27.20;95.00;;;;;;5051524;28;19943;-77
2022/08/15 14:06:24;;;;;;;;;;;27.20;94.70;;;;;;5068632;28;19982;-81
2022/08/15 14:08:50;;;;;;;;;;;27.20;93.90;;;;;;5055463;28;19928;-78
2022/08/15 14:11:16;;;;;;;;;;;27.20;94.10;;;;;;5064727;28;19928;-78
2022/08/15 14:13:48;;;;;;;;;;;27.20;93.50;;;;;;5029065;28;19929;-78
2022/08/15 14:16:14;;;;;;;;;;;27.20;93.20;;;;;;5064617;28;19943;-80
2022/08/15 14:18:47;;;;;;;;;;;27.20;93.50;;;;;;5029580;28;19929;-78
2022/08/15 14:21:23;;;;;;;;;;;27.20;93.60;;;;;;5032945;28;19924;-78
2022/08/15 14:23:49;;;;;;;;;;;27.30;94.10;;;;;;5055426;28;19932;-78
2022/08/15 14:26:16;;;;;;;;;;;27.10;94.40;;;;;;5064973;28;19932;-78
2022/08/15 14:28:42;;;;;;;;;;;27.10;94.50;;;;;;5066047;28;20032;-78
2022/08/15 14:31:07;;;;;;;;;;;27.10;94.70;;;;;;5064208;28;20011;-79
2022/08/15 14:33:33;;;;;;;;;;;27.10;94.90;;;;;;5063472;28;19924;-79
2022/08/15 14:36:00;;;;;;;;;;;27.10;95.10;;;;;;5045643;28;19935;-78
2022/08/15 14:38:32;;;;;;;;;;;27.20;95.40;;;;;;5087464;28;20317;-79
2022/08/15 14:40:58;;;;;;;;;;;27.20;95.70;;;;;;5050871;28;19929;-79
2022/08/15 14:43:24;;;;;;;;;;;27.20;95.50;;;;;;5050138;28;20029;-79
2022/08/15 14:45:51;;;;;;;;;;;27.20;95.90;;;;;;5053963;28;19993;-80
2022/08/15 14:48:25;;;;;;;;;;;27.20;96.50;;;;;;5057835;28;19924;-79
2022/08/15 14:50:52;;;;;;;;;;;27.20;96.90;;;;;;5070322;28;19924;-78
2022/08/15 14:53:21;;;;;;;;;;;27.20;97.20;;;;;;5055196;28;19969;-78
2022/08/15 14:55:47;;;;;;;;;;;27.20;97.70;;;;;;5053255;28;19928;-80
2022/08/15 14:58:14;;;;;;;;;;;27.20;98.10;;;;;;5068651;28;20019;-80
2022/08/15 15:03:44;;;;;;;;;;;27.20;98.70;;;;;;5063397;28;19932;-81
2022/08/15 15:06:24;;;;;;;;;;;27.10;98.20;;;;;;5075282;28;19975;-81
2022/08/15 15:11:44;;;;;;;;;;;27.00;97.60;;;;;;5005447;28;20392;-81
2022/08/15 15:14:17;;;;;;;;;;;27.00;97.30;;;;;;5025225;28;19943;-79
2022/08/15 15:16:55;;;;;;;;;;;27.00;97.50;;;;;;5012060;28;20335;-80
2022/08/15 15:19:21;;;;;;;;;;;27.00;97.80;;;;;;5025382;28;20337;-82
2022/08/15 15:21:47;;;;;;;;;;;27.00;97.70;;;;;;5016971;28;19928;-79
2022/08/15 15:24:13;;;;;;;;;;;27.00;97.40;;;;;;5013308;28;19971;-79
2022/08/15 15:26:41;;;;;;;;;;;27.00;97.40;;;;;;4995991;28;19929;-78
2022/08/15 15:29:07;;;;;;;;;;;27.00;97.80;;;;;;5031751;28;19928;-78
2022/08/15 15:31:33;;;;;;;;;;;27.00;98.40;;;;;;5028247;28;20440;-79
2022/08/15 15:34:00;;;;;;;;;;;27.00;98.40;;;;;;4986568;28;20481;-81
2022/08/15 15:36:27;;;;;;;;;;;26.90;96.80;;;;;;4970119;28;20082;-81